Zaliv Vostok — A8RM6 — position and weather

sailwx.info

Track history (hours):
 
Tides and Currents Weather Stations Pressure Air Temp Water Temp Dewpoint Dewpoint Depression Visibility Wind Speed Wind Dir Waves Ship Positions

Zaliv Vostok

Last reported at 2017-Jul-04 09:16 UTC. Time now 2017-Jul-28 18:51 UTC.
Position N 27°47' W 016°26'.
Warning: this ship's position is 24 days out of date.

Length 244 m; draft 14.2 m.

Type: Tanker. MMSI: 636014127.

Date/timePositionNaut miles runAvg speedWind from/ knotsBaromVisibWave heightAir tempDewpointWater temp
2017-Jul-04 09:16N 27°47' W 016°26'412.5
2017-Jul-04 08:57N 27°50' W 016°24'612.6
2017-Jul-04 08:29N 27°56' W 016°22'612.6
2017-Jul-04 08:00N 28°01' W 016°19'712.5
2017-Jul-04 07:28N 28°07' W 016°14'712.9
2017-Jul-04 06:56N 28°12' W 016°09'613.3
2017-Jul-04 06:30N 28°16' W 016°05'713.3
2017-Jul-04 06:00N 28°21' W 016°00'713.1
2017-Jul-04 05:30N 28°26' W 015°55'613.1
2017-Jul-04 05:00N 28°31' W 015°50'713.0
2017-Jul-04 04:30N 28°36' W 015°46'712.8
2017-Jul-04 03:59N 28°42' W 015°42'612.8
2017-Jul-04 03:30N 28°47' W 015°38'712.9
2017-Jul-04 03:00N 28°53' W 015°35'613.1
2017-Jul-04 02:31N 28°59' W 015°31'713.0
2017-Jul-04 02:01N 29°04' W 015°27'612.9
2017-Jul-04 01:31N 29°10' W 015°24'712.9
2017-Jul-04 01:00N 29°17' W 015°22'612.9
2017-Jul-04 00:30N 29°23' W 015°20'912.8
2017-Jul-03 23:48N 29°31' W 015°17'412.8
2017-Jul-03 23:30N 29°35' W 015°15'612.7
2017-Jul-03 23:01N 29°41' W 015°13'612.7
2017-Jul-03 22:30N 29°47' W 015°11'612.7
2017-Jul-03 22:00N 29°53' W 015°09'912.8
2017-Jul-03 21:18N 30°02' W 015°06'413.1
2017-Jul-03 21:00N 30°05' W 015°04'713.0
2017-Jul-03 20:27N 30°12' W 015°02'613.0
2017-Jul-03 20:00N 30°18' W 014°59'612.8
2017-Jul-03 19:30N 30°24' W 014°57'612.6
2017-Jul-03 19:00N 30°30' W 014°55'612.9
2017-Jul-03 18:30N 30°36' W 014°53'713.1
2017-Jul-03 18:00N 30°42' W 014°50'713.0
2017-Jul-03 17:30N 30°48' W 014°48'713.2
2017-Jul-03 17:00N 30°55' W 014°46'913.1
2017-Jul-03 16:20N 31°03' W 014°43'3612.8
2017-Jul-03 13:31N 31°37' W 014°30'012.8
2017-Jul-03 13:30N 31°38' W 014°30'1312.5
2017-Jul-03 12:26N 31°50' W 014°25'912.4
2017-Jul-03 11:42N 31°59' W 014°22'312.5
2017-Jul-03 11:27N 32°02' W 014°20'512.5
2017-Jul-03 11:00N 32°07' W 014°18'612.3
2017-Jul-03 10:31N 32°13' W 014°16'612.4
2017-Jul-03 10:00N 32°19' W 014°14'712.3
2017-Jul-03 09:28N 32°25' W 014°12'612.2
2017-Jul-03 09:00N 32°30' W 014°10'712.1
2017-Jul-03 08:26N 32°37' W 014°07'512.2
2017-Jul-03 08:00N 32°42' W 014°05'2012.3
2017-Jul-03 06:24N 33°01' W 013°58'612.5
2017-Jul-03 05:55N 33°07' W 013°56'1712.3
2017-Jul-03 04:31N 33°23' W 013°50'112.1
2017-Jul-03 04:24N 33°25' W 013°50'1012.2
2017-Jul-03 03:35N 33°34' W 013°47'512.1
2017-Jul-03 03:12N 33°39' W 013°45'212.0
2017-Jul-03 03:00N 33°41' W 013°44'612.0
2017-Jul-03 02:30N 33°47' W 013°42'612.1
2017-Jul-03 02:00N 33°52' W 013°40'812.1
2017-Jul-03 01:21N 34°00' W 013°38'412.1
2017-Jul-03 01:00N 34°04' W 013°36'612.1
2017-Jul-03 00:30N 34°10' W 013°34'612.0
2017-Jul-03 00:00N 34°16' W 013°32'612.3
2017-Jul-02 23:30N 34°22' W 013°30'612.5
2017-Jul-02 23:00N 34°28' W 013°28'611.7
2017-Jul-02 22:31N 34°33' W 013°26'612.1
2017-Jul-02 22:01N 34°39' W 013°24'712.2
2017-Jul-02 21:26N 34°46' W 013°22'512.4
2017-Jul-02 21:01N 34°51' W 013°20'612.1
2017-Jul-02 20:31N 34°57' W 013°18'612.2
2017-Jul-02 20:00N 35°02' W 013°16'612.0
2017-Jul-02 19:31N 35°08' W 013°14'612.1
2017-Jul-02 19:00N 35°14' W 013°12'611.9
2017-Jul-02 18:30N 35°20' W 013°10'612.3
2017-Jul-02 18:00N 35°26' W 013°08'712.7
2017-Jul-02 17:29N 35°32' W 013°06'712.3
2017-Jul-02 16:55N 35°39' W 013°03'512.5
2017-Jul-02 16:30N 35°44' W 013°01'612.7
2017-Jul-02 16:00N 35°50' W 012°59'612.6
2017-Jul-02 15:30N 35°56' W 012°57'612.7
2017-Jul-02 15:00N 36°02' W 012°55'9612.5
2017-Jul-02 07:17N 37°35' W 012°22'412.2
2017-Jul-02 07:00N 37°38' W 012°21'1812.4
2017-Jul-02 05:33N 37°55' W 012°14'412.6
2017-Jul-02 05:16N 37°59' W 012°13'412.9
2017-Jul-02 04:55N 38°03' W 012°12'512.7
2017-Jul-02 04:30N 38°08' W 012°10'  
2017-Jun-29 12:30N 49°36' W 003°58'611.4
2017-Jun-29 12:01N 49°39' W 003°51'510.8
2017-Jun-29 11:31N 49°42' W 003°44'510.3
2017-Jun-29 11:01N 49°44' W 003°37'5 9.8
2017-Jun-29 10:31N 49°47' W 003°30'5 9.9
2017-Jun-29 10:00N 49°49' W 003°24'510.0
2017-Jun-29 09:31N 49°52' W 003°17'510.2
2017-Jun-29 09:01N 49°54' W 003°10'510.7
2017-Jun-29 08:31N 49°57' W 003°03'611.1
2017-Jun-29 08:01N 49°60' W 002°56'611.9
2017-Jun-29 07:30N 50°01' W 002°47'612.6
2017-Jun-29 07:00N 50°03' W 002°38'2314.4
2017-Jun-29 05:24N 50°10' W 002°03'1015.2
2017-Jun-29 04:43N 50°12' W 001°47'514.8
2017-Jun-29 04:23N 50°14' W 001°40'514.4
2017-Jun-29 04:00N 50°15' W 001°32'713.9
2017-Jun-29 03:31N 50°17' W 001°21'3610.6
2017-Jun-29 00:08N 50°27' W 000°27'2 9.4
2017-Jun-28 23:57N 50°27' W 000°25'4 9.7
2017-Jun-28 23:31N 50°28' W 000°18'510.0
2017-Jun-28 23:00N 50°30' W 000°10'510.5
2017-Jun-28 22:30N 50°31' W 000°03'510.9
2017-Jun-28 22:01N 50°32' E 000°06'611.5
2017-Jun-28 21:30N 50°34' E 000°15'612.2
2017-Jun-28 21:01N 50°35' E 000°24'612.7
2017-Jun-28 20:31N 50°37' E 000°34'713.0
2017-Jun-28 20:01N 50°40' E 000°42'612.9
2017-Jun-28 19:30N 50°44' E 000°50'612.5
2017-Jun-28 19:01N 50°48' E 000°58'712.0
2017-Jun-28 18:28N 50°52' E 001°06'511.5
2017-Jun-28 18:00N 50°56' E 001°12'510.8
2017-Jun-28 17:31N 50°59' E 001°19'5 9.9
2017-Jun-28 17:00N 51°03' E 001°24'5 9.4
2017-Jun-28 16:30N 51°06' E 001°30'4 8.6
2017-Jun-28 16:00N 51°08' E 001°36'4 8.8
2017-Jun-28 15:30N 51°11' E 001°41'5 9.2
2017-Jun-28 15:00N 51°14' E 001°47'1110.7
2017-Jun-28 14:00N 51°24' E 001°53'611.9
2017-Jun-28 13:30N 51°29' E 001°59'612.8
2017-Jun-28 13:00N 51°33' E 002°06'713.2
2017-Jun-28 12:31N 51°38' E 002°13'46410.4
2017-Jun-26 15:54N 57°50' E 010°13'4 8.2
2017-Jun-26 15:28N 57°49' E 010°20'5 8.2
2017-Jun-26 14:55N 57°50' E 010°29'3 8.1
2017-Jun-26 14:30N 57°49' E 010°35'7 6.8
2017-Jun-26 13:30N 57°49' E 010°48'3 6.0
2017-Jun-26 13:00N 57°46' E 010°50'4 8.3
2017-Jun-26 12:30N 57°43' E 010°55'5 9.9
2017-Jun-26 12:00N 57°40' E 011°02'510.7
2017-Jun-26 11:30N 57°36' E 011°09'510.6
2017-Jun-26 11:00N 57°32' E 011°16'510.6
2017-Jun-26 10:30N 57°29' E 011°24'510.6
2017-Jun-26 10:00N 57°24' E 011°28'510.8
2017-Jun-26 09:31N 57°19' E 011°31'510.8
2017-Jun-26 09:00N 57°14' E 011°35'510.4
2017-Jun-26 08:30N 57°09' E 011°38'510.2
2017-Jun-26 08:00N 57°04' E 011°41'112 9.3
2017-Jun-25 19:54N 55°14' E 011°06'4 9.6
2017-Jun-25 19:31N 55°11' E 011°02'510.0
2017-Jun-25 19:00N 55°06' E 010°59'510.0
2017-Jun-25 18:30N 55°01' E 010°59'5 9.4
2017-Jun-25 18:01N 54°57' E 010°55'5 9.8
2017-Jun-25 17:30N 54°53' E 010°50'5 9.6
2017-Jun-25 17:00N 54°48' E 010°50'5 9.6
2017-Jun-25 16:30N 54°43' E 010°47'4 8.7
2017-Jun-25 16:00N 54°39' E 010°50'5 9.9
2017-Jun-25 15:31N 54°37' E 010°57'5 9.6
2017-Jun-25 15:01N 54°36' E 011°05'5 9.6
2017-Jun-25 14:31N 54°35' E 011°13'1010.2
2017-Jun-25 13:31N 54°30' E 011°29'610.8
2017-Jun-25 13:00N 54°28' E 011°38'511.0
2017-Jun-25 12:31N 54°26' E 011°46'510.7
2017-Jun-25 12:00N 54°26' E 011°56'711.1
2017-Jun-25 11:25N 54°26' E 012°07'4 9.0
2017-Jun-25 11:00N 54°28' E 012°12'510.7
2017-Jun-25 10:31N 54°33' E 012°15'4 7.8
2017-Jun-25 10:01N 54°37' E 012°18'6811.2
2017-Jun-25 03:53N 55°05' E 014°06'611.4
2017-Jun-25 03:23N 55°10' E 014°12'411.4
2017-Jun-25 02:59N 55°13' E 014°18'611.4
2017-Jun-25 02:28N 55°18' E 014°24'511.5
2017-Jun-25 02:00N 55°22' E 014°30'611.3
2017-Jun-25 01:30N 55°26' E 014°37'611.1
2017-Jun-25 01:00N 55°29' E 014°46'611.1
2017-Jun-25 00:30N 55°31' E 014°54'511.1
2017-Jun-25 00:00N 55°34' E 015°03'611.1
2017-Jun-24 23:30N 55°37' E 015°11'511.0
2017-Jun-24 23:01N 55°39' E 015°20'510.5
2017-Jun-24 22:30N 55°40' E 015°29'510.9
2017-Jun-24 22:00N 55°41' E 015°39'611.1
2017-Jun-24 21:30N 55°43' E 015°48'611.3
2017-Jun-24 21:00N 55°44' E 015°58'611.3
2017-Jun-24 20:30N 55°45' E 016°08'611.3
2017-Jun-24 20:00N 55°47' E 016°17'611.1
2017-Jun-24 19:30N 55°48' E 016°27'611.0
2017-Jun-24 19:00N 55°50' E 016°36'511.0
2017-Jun-24 18:30N 55°51' E 016°46'510.9
2017-Jun-24 18:01N 55°52' E 016°55'510.9
2017-Jun-24 17:30N 55°54' E 017°05'510.7
2017-Jun-24 17:00N 55°55' E 017°14'610.7
2017-Jun-24 16:25N 55°57' E 017°25'  
Track history (hours):
 
Tides and Currents Weather Stations Pressure Air Temp Water Temp Dewpoint Dewpoint Depression Visibility Wind Speed Wind Dir Waves Ship Positions

Zaliv Vostok

Last reported at 2017-Jul-04 09:16 UTC. Time now 2017-Jul-28 18:51 UTC.
Position N 27°47' W 016°26'.
Warning: this ship's position is 24 days out of date.

Length 244 m; draft 14.2 m.

Type: Tanker. MMSI: 636014127.

Date/timePositionNaut miles runAvg speedWind from/ knotsBaromVisibWave heightAir tempDewpointWater temp
2017-Jul-04 09:16N 27°47' W 016°26'412.5
2017-Jul-04 08:57N 27°50' W 016°24'612.6
2017-Jul-04 08:29N 27°56' W 016°22'612.6
2017-Jul-04 08:00N 28°01' W 016°19'712.5
2017-Jul-04 07:28N 28°07' W 016°14'712.9
2017-Jul-04 06:56N 28°12' W 016°09'613.3
2017-Jul-04 06:30N 28°16' W 016°05'713.3
2017-Jul-04 06:00N 28°21' W 016°00'713.1
2017-Jul-04 05:30N 28°26' W 015°55'613.1
2017-Jul-04 05:00N 28°31' W 015°50'713.0
2017-Jul-04 04:30N 28°36' W 015°46'712.8
2017-Jul-04 03:59N 28°42' W 015°42'612.8
2017-Jul-04 03:30N 28°47' W 015°38'712.9
2017-Jul-04 03:00N 28°53' W 015°35'613.1
2017-Jul-04 02:31N 28°59' W 015°31'713.0
2017-Jul-04 02:01N 29°04' W 015°27'612.9
2017-Jul-04 01:31N 29°10' W 015°24'712.9
2017-Jul-04 01:00N 29°17' W 015°22'612.9
2017-Jul-04 00:30N 29°23' W 015°20'912.8
2017-Jul-03 23:48N 29°31' W 015°17'412.8
2017-Jul-03 23:30N 29°35' W 015°15'612.7
2017-Jul-03 23:01N 29°41' W 015°13'612.7
2017-Jul-03 22:30N 29°47' W 015°11'612.7
2017-Jul-03 22:00N 29°53' W 015°09'912.8
2017-Jul-03 21:18N 30°02' W 015°06'413.1
2017-Jul-03 21:00N 30°05' W 015°04'713.0
2017-Jul-03 20:27N 30°12' W 015°02'613.0
2017-Jul-03 20:00N 30°18' W 014°59'612.8
2017-Jul-03 19:30N 30°24' W 014°57'612.6
2017-Jul-03 19:00N 30°30' W 014°55'612.9
2017-Jul-03 18:30N 30°36' W 014°53'713.1
2017-Jul-03 18:00N 30°42' W 014°50'713.0
2017-Jul-03 17:30N 30°48' W 014°48'713.2
2017-Jul-03 17:00N 30°55' W 014°46'913.1
2017-Jul-03 16:20N 31°03' W 014°43'3612.8
2017-Jul-03 13:31N 31°37' W 014°30'012.8
2017-Jul-03 13:30N 31°38' W 014°30'1312.5
2017-Jul-03 12:26N 31°50' W 014°25'912.4
2017-Jul-03 11:42N 31°59' W 014°22'312.5
2017-Jul-03 11:27N 32°02' W 014°20'512.5
2017-Jul-03 11:00N 32°07' W 014°18'612.3
2017-Jul-03 10:31N 32°13' W 014°16'612.4
2017-Jul-03 10:00N 32°19' W 014°14'712.3
2017-Jul-03 09:28N 32°25' W 014°12'612.2
2017-Jul-03 09:00N 32°30' W 014°10'712.1
2017-Jul-03 08:26N 32°37' W 014°07'512.2
2017-Jul-03 08:00N 32°42' W 014°05'2012.3
2017-Jul-03 06:24N 33°01' W 013°58'612.5
2017-Jul-03 05:55N 33°07' W 013°56'1712.3
2017-Jul-03 04:31N 33°23' W 013°50'112.1
2017-Jul-03 04:24N 33°25' W 013°50'1012.2
2017-Jul-03 03:35N 33°34' W 013°47'512.1
2017-Jul-03 03:12N 33°39' W 013°45'212.0
2017-Jul-03 03:00N 33°41' W 013°44'612.0
2017-Jul-03 02:30N 33°47' W 013°42'612.1
2017-Jul-03 02:00N 33°52' W 013°40'812.1
2017-Jul-03 01:21N 34°00' W 013°38'412.1
2017-Jul-03 01:00N 34°04' W 013°36'612.1
2017-Jul-03 00:30N 34°10' W 013°34'612.0
2017-Jul-03 00:00N 34°16' W 013°32'612.3
2017-Jul-02 23:30N 34°22' W 013°30'612.5
2017-Jul-02 23:00N 34°28' W 013°28'611.7
2017-Jul-02 22:31N 34°33' W 013°26'612.1
2017-Jul-02 22:01N 34°39' W 013°24'712.2
2017-Jul-02 21:26N 34°46' W 013°22'512.4
2017-Jul-02 21:01N 34°51' W 013°20'612.1
2017-Jul-02 20:31N 34°57' W 013°18'612.2
2017-Jul-02 20:00N 35°02' W 013°16'612.0
2017-Jul-02 19:31N 35°08' W 013°14'612.1
2017-Jul-02 19:00N 35°14' W 013°12'611.9
2017-Jul-02 18:30N 35°20' W 013°10'612.3
2017-Jul-02 18:00N 35°26' W 013°08'712.7
2017-Jul-02 17:29N 35°32' W 013°06'712.3
2017-Jul-02 16:55N 35°39' W 013°03'512.5
2017-Jul-02 16:30N 35°44' W 013°01'612.7
2017-Jul-02 16:00N 35°50' W 012°59'612.6
2017-Jul-02 15:30N 35°56' W 012°57'612.7
2017-Jul-02 15:00N 36°02' W 012°55'9612.5
2017-Jul-02 07:17N 37°35' W 012°22'412.2
2017-Jul-02 07:00N 37°38' W 012°21'1812.4
2017-Jul-02 05:33N 37°55' W 012°14'412.6
2017-Jul-02 05:16N 37°59' W 012°13'412.9
2017-Jul-02 04:55N 38°03' W 012°12'512.7
2017-Jul-02 04:30N 38°08' W 012°10'  
2017-Jun-29 12:30N 49°36' W 003°58'611.4
2017-Jun-29 12:01N 49°39' W 003°51'510.8
2017-Jun-29 11:31N 49°42' W 003°44'510.3
2017-Jun-29 11:01N 49°44' W 003°37'5 9.8
2017-Jun-29 10:31N 49°47' W 003°30'5 9.9
2017-Jun-29 10:00N 49°49' W 003°24'510.0
2017-Jun-29 09:31N 49°52' W 003°17'510.2
2017-Jun-29 09:01N 49°54' W 003°10'510.7
2017-Jun-29 08:31N 49°57' W 003°03'611.1
2017-Jun-29 08:01N 49°60' W 002°56'611.9
2017-Jun-29 07:30N 50°01' W 002°47'612.6
2017-Jun-29 07:00N 50°03' W 002°38'2314.4
2017-Jun-29 05:24N 50°10' W 002°03'1015.2
2017-Jun-29 04:43N 50°12' W 001°47'514.8
2017-Jun-29 04:23N 50°14' W 001°40'514.4
2017-Jun-29 04:00N 50°15' W 001°32'713.9
2017-Jun-29 03:31N 50°17' W 001°21'3610.6
2017-Jun-29 00:08N 50°27' W 000°27'2 9.4
2017-Jun-28 23:57N 50°27' W 000°25'4 9.7
2017-Jun-28 23:31N 50°28' W 000°18'510.0
2017-Jun-28 23:00N 50°30' W 000°10'510.5
2017-Jun-28 22:30N 50°31' W 000°03'510.9
2017-Jun-28 22:01N 50°32' E 000°06'611.5
2017-Jun-28 21:30N 50°34' E 000°15'612.2
2017-Jun-28 21:01N 50°35' E 000°24'612.7
2017-Jun-28 20:31N 50°37' E 000°34'713.0
2017-Jun-28 20:01N 50°40' E 000°42'612.9
2017-Jun-28 19:30N 50°44' E 000°50'612.5
2017-Jun-28 19:01N 50°48' E 000°58'712.0
2017-Jun-28 18:28N 50°52' E 001°06'511.5
2017-Jun-28 18:00N 50°56' E 001°12'510.8
2017-Jun-28 17:31N 50°59' E 001°19'5 9.9
2017-Jun-28 17:00N 51°03' E 001°24'5 9.4
2017-Jun-28 16:30N 51°06' E 001°30'4 8.6
2017-Jun-28 16:00N 51°08' E 001°36'4 8.8
2017-Jun-28 15:30N 51°11' E 001°41'5 9.2
2017-Jun-28 15:00N 51°14' E 001°47'1110.7
2017-Jun-28 14:00N 51°24' E 001°53'611.9
2017-Jun-28 13:30N 51°29' E 001°59'612.8
2017-Jun-28 13:00N 51°33' E 002°06'713.2
2017-Jun-28 12:31N 51°38' E 002°13'46410.4
2017-Jun-26 15:54N 57°50' E 010°13'4 8.2
2017-Jun-26 15:28N 57°49' E 010°20'5 8.2
2017-Jun-26 14:55N 57°50' E 010°29'3 8.1
2017-Jun-26 14:30N 57°49' E 010°35'7 6.8
2017-Jun-26 13:30N 57°49' E 010°48'3 6.0
2017-Jun-26 13:00N 57°46' E 010°50'4 8.3
2017-Jun-26 12:30N 57°43' E 010°55'5 9.9
2017-Jun-26 12:00N 57°40' E 011°02'510.7
2017-Jun-26 11:30N 57°36' E 011°09'510.6
2017-Jun-26 11:00N 57°32' E 011°16'510.6
2017-Jun-26 10:30N 57°29' E 011°24'510.6
2017-Jun-26 10:00N 57°24' E 011°28'510.8
2017-Jun-26 09:31N 57°19' E 011°31'510.8
2017-Jun-26 09:00N 57°14' E 011°35'510.4
2017-Jun-26 08:30N 57°09' E 011°38'510.2
2017-Jun-26 08:00N 57°04' E 011°41'112 9.3
2017-Jun-25 19:54N 55°14' E 011°06'4 9.6
2017-Jun-25 19:31N 55°11' E 011°02'510.0
2017-Jun-25 19:00N 55°06' E 010°59'510.0
2017-Jun-25 18:30N 55°01' E 010°59'5 9.4
2017-Jun-25 18:01N 54°57' E 010°55'5 9.8
2017-Jun-25 17:30N 54°53' E 010°50'5 9.6
2017-Jun-25 17:00N 54°48' E 010°50'5 9.6
2017-Jun-25 16:30N 54°43' E 010°47'4 8.7
2017-Jun-25 16:00N 54°39' E 010°50'5 9.9
2017-Jun-25 15:31N 54°37' E 010°57'5 9.6
2017-Jun-25 15:01N 54°36' E 011°05'5 9.6
2017-Jun-25 14:31N 54°35' E 011°13'1010.2
2017-Jun-25 13:31N 54°30' E 011°29'610.8
2017-Jun-25 13:00N 54°28' E 011°38'511.0
2017-Jun-25 12:31N 54°26' E 011°46'510.7
2017-Jun-25 12:00N 54°26' E 011°56'711.1
2017-Jun-25 11:25N 54°26' E 012°07'4 9.0
2017-Jun-25 11:00N 54°28' E 012°12'510.7
2017-Jun-25 10:31N 54°33' E 012°15'4 7.8
2017-Jun-25 10:01N 54°37' E 012°18'6811.2
2017-Jun-25 03:53N 55°05' E 014°06'611.4
2017-Jun-25 03:23N 55°10' E 014°12'411.4
2017-Jun-25 02:59N 55°13' E 014°18'611.4
2017-Jun-25 02:28N 55°18' E 014°24'511.5
2017-Jun-25 02:00N 55°22' E 014°30'611.3
2017-Jun-25 01:30N 55°26' E 014°37'611.1
2017-Jun-25 01:00N 55°29' E 014°46'611.1
2017-Jun-25 00:30N 55°31' E 014°54'511.1
2017-Jun-25 00:00N 55°34' E 015°03'611.1
2017-Jun-24 23:30N 55°37' E 015°11'511.0
2017-Jun-24 23:01N 55°39' E 015°20'510.5
2017-Jun-24 22:30N 55°40' E 015°29'510.9
2017-Jun-24 22:00N 55°41' E 015°39'611.1
2017-Jun-24 21:30N 55°43' E 015°48'611.3
2017-Jun-24 21:00N 55°44' E 015°58'611.3
2017-Jun-24 20:30N 55°45' E 016°08'611.3
2017-Jun-24 20:00N 55°47' E 016°17'611.1
2017-Jun-24 19:30N 55°48' E 016°27'611.0
2017-Jun-24 19:00N 55°50' E 016°36'511.0
2017-Jun-24 18:30N 55°51' E 016°46'510.9
2017-Jun-24 18:01N 55°52' E 016°55'510.9
2017-Jun-24 17:30N 55°54' E 017°05'510.7
2017-Jun-24 17:00N 55°55' E 017°14'610.7
2017-Jun-24 16:25N 55°57' E 017°25'  

Dump ship's entire track history